sensor_id;sensor_type;location;lat;lon;timestamp;P1;durP1;ratioP1;P2;durP2;ratioP2
60714;SDS011;46564;53.096;8.246;2023-07-20T00:01:38;3.53;;;1.30;;
60714;SDS011;46564;53.096;8.246;2023-07-20T00:06:57;2.35;;;1.40;;
60714;SDS011;46564;53.096;8.246;2023-07-20T00:11:58;1.63;;;1.23;;
60714;SDS011;46564;53.096;8.246;2023-07-20T00:17:00;3.38;;;1.40;;
60714;SDS011;46564;53.096;8.246;2023-07-20T00:22:03;4.55;;;1.73;;
60714;SDS011;46564;53.096;8.246;2023-07-20T00:27:05;2.17;;;1.25;;
60714;SDS011;46564;53.096;8.246;2023-07-20T00:32:06;2.83;;;1.23;;
60714;SDS011;46564;53.096;8.246;2023-07-20T00:37:08;1.50;;;1.10;;
60714;SDS011;46564;53.096;8.246;2023-07-20T00:42:10;3.00;;;1.20;;
60714;SDS011;46564;53.096;8.246;2023-07-20T00:47:11;2.97;;;1.30;;
60714;SDS011;46564;53.096;8.246;2023-07-20T00:52:13;1.90;;;1.23;;
60714;SDS011;46564;53.096;8.246;2023-07-20T00:57:15;3.53;;;1.48;;
60714;SDS011;46564;53.096;8.246;2023-07-20T01:02:18;2.28;;;1.20;;
60714;SDS011;46564;53.096;8.246;2023-07-20T01:07:26;3.22;;;1.60;;
60714;SDS011;46564;53.096;8.246;2023-07-20T01:12:40;3.65;;;1.60;;
60714;SDS011;46564;53.096;8.246;2023-07-20T01:17:43;2.92;;;1.60;;
60714;SDS011;46564;53.096;8.246;2023-07-20T01:33:45;2.60;;;1.23;;
60714;SDS011;46564;53.096;8.246;2023-07-20T01:38:49;2.72;;;1.30;;
60714;SDS011;46564;53.096;8.246;2023-07-20T01:43:50;2.65;;;1.30;;
60714;SDS011;46564;53.096;8.246;2023-07-20T01:48:52;2.88;;;1.52;;
60714;SDS011;46564;53.096;8.246;2023-07-20T01:53:55;6.20;;;1.75;;
60714;SDS011;46564;53.096;8.246;2023-07-20T01:58:57;3.65;;;2.00;;
60714;SDS011;46564;53.096;8.246;2023-07-20T02:03:58;2.92;;;1.80;;
60714;SDS011;46564;53.096;8.246;2023-07-20T02:08:59;5.82;;;2.05;;
60714;SDS011;46564;53.096;8.246;2023-07-20T02:14:01;3.50;;;2.03;;
60714;SDS011;46564;53.096;8.246;2023-07-20T02:19:02;4.50;;;2.33;;
60714;SDS011;46564;53.096;8.246;2023-07-20T02:24:04;8.13;;;2.40;;
60714;SDS011;46564;53.096;8.246;2023-07-20T02:29:05;4.20;;;2.17;;
60714;SDS011;46564;53.096;8.246;2023-07-20T02:34:07;6.50;;;2.70;;
60714;SDS011;46564;53.096;8.246;2023-07-20T02:39:08;4.57;;;2.17;;
60714;SDS011;46564;53.096;8.246;2023-07-20T02:44:10;8.75;;;2.80;;
60714;SDS011;46564;53.096;8.246;2023-07-20T02:49:11;7.40;;;2.65;;
60714;SDS011;46564;53.096;8.246;2023-07-20T02:54:13;7.05;;;2.67;;
60714;SDS011;46564;53.096;8.246;2023-07-20T02:59:14;5.90;;;2.88;;
60714;SDS011;46564;53.096;8.246;2023-07-20T03:04:16;6.78;;;3.10;;
60714;SDS011;46564;53.096;8.246;2023-07-20T03:09:17;6.18;;;3.40;;
60714;SDS011;46564;53.096;8.246;2023-07-20T03:14:19;6.63;;;3.17;;
60714;SDS011;46564;53.096;8.246;2023-07-20T03:19:20;7.72;;;3.20;;
60714;SDS011;46564;53.096;8.246;2023-07-20T03:24:22;7.45;;;3.28;;
60714;SDS011;46564;53.096;8.246;2023-07-20T03:29:23;4.97;;;2.50;;
60714;SDS011;46564;53.096;8.246;2023-07-20T03:34:25;5.78;;;2.72;;
60714;SDS011;46564;53.096;8.246;2023-07-20T03:39:26;6.05;;;2.42;;
60714;SDS011;46564;53.096;8.246;2023-07-20T03:44:28;4.60;;;2.22;;
60714;SDS011;46564;53.096;8.246;2023-07-20T03:49:29;4.63;;;2.20;;
60714;SDS011;46564;53.096;8.246;2023-07-20T03:54:31;4.28;;;2.05;;
60714;SDS011;46564;53.096;8.246;2023-07-20T03:59:32;3.17;;;1.88;;
60714;SDS011;46564;53.096;8.246;2023-07-20T04:04:34;4.35;;;2.25;;
60714;SDS011;46564;53.096;8.246;2023-07-20T04:09:35;6.55;;;2.30;;
60714;SDS011;46564;53.096;8.246;2023-07-20T04:14:36;4.05;;;2.17;;
60714;SDS011;46564;53.096;8.246;2023-07-20T04:19:38;5.60;;;2.05;;
60714;SDS011;46564;53.096;8.246;2023-07-20T04:24:40;3.35;;;1.77;;
60714;SDS011;46564;53.096;8.246;2023-07-20T04:29:41;4.75;;;2.42;;
60714;SDS011;46564;53.096;8.246;2023-07-20T04:34:42;4.30;;;2.22;;
60714;SDS011;46564;53.096;8.246;2023-07-20T04:39:44;4.65;;;2.45;;
60714;SDS011;46564;53.096;8.246;2023-07-20T04:44:46;4.65;;;2.20;;
60714;SDS011;46564;53.096;8.246;2023-07-20T04:49:47;5.40;;;2.38;;
60714;SDS011;46564;53.096;8.246;2023-07-20T04:54:48;5.93;;;2.45;;
60714;SDS011;46564;53.096;8.246;2023-07-20T04:59:50;7.25;;;2.70;;
60714;SDS011;46564;53.096;8.246;2023-07-20T05:04:52;4.93;;;2.53;;
60714;SDS011;46564;53.096;8.246;2023-07-20T05:09:53;5.78;;;2.38;;
60714;SDS011;46564;53.096;8.246;2023-07-20T05:14:55;5.72;;;2.42;;
60714;SDS011;46564;53.096;8.246;2023-07-20T05:19:56;7.43;;;3.17;;
60714;SDS011;46564;53.096;8.246;2023-07-20T05:24:58;6.93;;;2.67;;
60714;SDS011;46564;53.096;8.246;2023-07-20T05:29:59;5.55;;;2.38;;
60714;SDS011;46564;53.096;8.246;2023-07-20T05:35:01;9.65;;;3.47;;
60714;SDS011;46564;53.096;8.246;2023-07-20T05:40:02;5.10;;;1.92;;
60714;SDS011;46564;53.096;8.246;2023-07-20T05:45:05;5.00;;;2.22;;
60714;SDS011;46564;53.096;8.246;2023-07-20T05:50:06;3.60;;;1.40;;
60714;SDS011;46564;53.096;8.246;2023-07-20T05:55:08;6.28;;;1.60;;
60714;SDS011;46564;53.096;8.246;2023-07-20T06:00:10;5.35;;;1.52;;
60714;SDS011;46564;53.096;8.246;2023-07-20T06:05:15;4.82;;;1.35;;
60714;SDS011;46564;53.096;8.246;2023-07-20T06:10:16;1.67;;;1.00;;
60714;SDS011;46564;53.096;8.246;2023-07-20T06:15:34;6.13;;;1.50;;
60714;SDS011;46564;53.096;8.246;2023-07-20T06:20:36;2.67;;;1.20;;
60714;SDS011;46564;53.096;8.246;2023-07-20T06:25:37;2.50;;;1.48;;
60714;SDS011;46564;53.096;8.246;2023-07-20T06:30:39;3.20;;;1.00;;
60714;SDS011;46564;53.096;8.246;2023-07-20T06:35:43;2.00;;;0.98;;
60714;SDS011;46564;53.096;8.246;2023-07-20T06:40:48;4.13;;;1.23;;
60714;SDS011;46564;53.096;8.246;2023-07-20T06:45:52;4.82;;;1.00;;
60714;SDS011;46564;53.096;8.246;2023-07-20T06:50:54;2.63;;;1.00;;
60714;SDS011;46564;53.096;8.246;2023-07-20T06:55:55;4.38;;;1.10;;
60714;SDS011;46564;53.096;8.246;2023-07-20T07:00:57;3.40;;;1.05;;
60714;SDS011;46564;53.096;8.246;2023-07-20T07:05:58;5.07;;;1.17;;
60714;SDS011;46564;53.096;8.246;2023-07-20T07:11:00;5.32;;;1.20;;
60714;SDS011;46564;53.096;8.246;2023-07-20T07:16:01;2.30;;;1.13;;
60714;SDS011;46564;53.096;8.246;2023-07-20T07:21:03;1.60;;;1.00;;
60714;SDS011;46564;53.096;8.246;2023-07-20T07:26:04;2.35;;;1.17;;
60714;SDS011;46564;53.096;8.246;2023-07-20T07:31:06;6.07;;;1.00;;
60714;SDS011;46564;53.096;8.246;2023-07-20T07:36:08;8.00;;;0.93;;
60714;SDS011;46564;53.096;8.246;2023-07-20T07:41:09;5.78;;;0.70;;
60714;SDS011;46564;53.096;8.246;2023-07-20T07:46:11;2.55;;;1.10;;
60714;SDS011;46564;53.096;8.246;2023-07-20T07:51:12;1.35;;;0.65;;
60714;SDS011;46564;53.096;8.246;2023-07-20T07:56:14;5.35;;;0.80;;
60714;SDS011;46564;53.096;8.246;2023-07-20T08:01:15;1.17;;;0.60;;
60714;SDS011;46564;53.096;8.246;2023-07-20T08:06:17;3.92;;;0.85;;
60714;SDS011;46564;53.096;8.246;2023-07-20T08:11:18;2.53;;;1.00;;
60714;SDS011;46564;53.096;8.246;2023-07-20T08:16:20;1.40;;;0.65;;
60714;SDS011;46564;53.096;8.246;2023-07-20T08:21:22;2.13;;;0.90;;
60714;SDS011;46564;53.096;8.246;2023-07-20T08:26:23;1.45;;;0.80;;
60714;SDS011;46564;53.096;8.246;2023-07-20T08:31:26;3.35;;;1.05;;
60714;SDS011;46564;53.096;8.246;2023-07-20T08:36:27;2.10;;;1.00;;
60714;SDS011;46564;53.096;8.246;2023-07-20T08:41:28;1.48;;;0.75;;
60714;SDS011;46564;53.096;8.246;2023-07-20T08:46:30;5.05;;;0.77;;
60714;SDS011;46564;53.096;8.246;2023-07-20T08:51:33;2.13;;;0.85;;
60714;SDS011;46564;53.096;8.246;2023-07-20T08:56:36;3.97;;;1.10;;
60714;SDS011;46564;53.096;8.246;2023-07-20T09:01:38;6.68;;;1.02;;
60714;SDS011;46564;53.096;8.246;2023-07-20T09:06:40;3.30;;;1.15;;
60714;SDS011;46564;53.096;8.246;2023-07-20T09:11:47;7.50;;;1.40;;
60714;SDS011;46564;53.096;8.246;2023-07-20T09:16:50;4.07;;;1.23;;
60714;SDS011;46564;53.096;8.246;2023-07-20T09:21:54;4.10;;;1.17;;
60714;SDS011;46564;53.096;8.246;2023-07-20T09:26:55;4.65;;;1.27;;
60714;SDS011;46564;53.096;8.246;2023-07-20T09:32:00;3.45;;;1.13;;
60714;SDS011;46564;53.096;8.246;2023-07-20T09:37:03;5.50;;;1.17;;
60714;SDS011;46564;53.096;8.246;2023-07-20T09:42:05;3.83;;;1.25;;
60714;SDS011;46564;53.096;8.246;2023-07-20T09:47:10;5.35;;;1.50;;
60714;SDS011;46564;53.096;8.246;2023-07-20T09:52:11;8.43;;;1.63;;
60714;SDS011;46564;53.096;8.246;2023-07-20T09:57:15;3.40;;;1.65;;
60714;SDS011;46564;53.096;8.246;2023-07-20T10:02:20;2.65;;;1.17;;
60714;SDS011;46564;53.096;8.246;2023-07-20T10:07:23;3.95;;;1.30;;
60714;SDS011;46564;53.096;8.246;2023-07-20T10:12:29;2.97;;;1.17;;
60714;SDS011;46564;53.096;8.246;2023-07-20T10:17:32;2.95;;;1.27;;
60714;SDS011;46564;53.096;8.246;2023-07-20T10:22:35;7.43;;;1.25;;
60714;SDS011;46564;53.096;8.246;2023-07-20T10:27:42;6.47;;;1.00;;
60714;SDS011;46564;53.096;8.246;2023-07-20T10:32:44;4.15;;;1.10;;
60714;SDS011;46564;53.096;8.246;2023-07-20T10:37:53;3.80;;;1.00;;
60714;SDS011;46564;53.096;8.246;2023-07-20T10:48:18;3.00;;;1.00;;
60714;SDS011;46564;53.096;8.246;2023-07-20T10:53:20;1.95;;;0.85;;
60714;SDS011;46564;53.096;8.246;2023-07-20T10:58:22;4.45;;;1.20;;
60714;SDS011;46564;53.096;8.246;2023-07-20T11:03:27;4.40;;;1.20;;
60714;SDS011;46564;53.096;8.246;2023-07-20T11:08:42;5.63;;;1.30;;
60714;SDS011;46564;53.096;8.246;2023-07-20T11:14:02;3.10;;;1.00;;
60714;SDS011;46564;53.096;8.246;2023-07-20T11:19:06;6.10;;;0.97;;
60714;SDS011;46564;53.096;8.246;2023-07-20T11:29:16;3.13;;;0.85;;
60714;SDS011;46564;53.096;8.246;2023-07-20T11:34:33;4.47;;;0.90;;
60714;SDS011;46564;53.096;8.246;2023-07-20T11:39:35;3.40;;;0.50;;
60714;SDS011;46564;53.096;8.246;2023-07-20T11:44:37;3.75;;;0.82;;
60714;SDS011;46564;53.096;8.246;2023-07-20T11:49:40;3.13;;;0.77;;
60714;SDS011;46564;53.096;8.246;2023-07-20T11:54:43;3.40;;;1.17;;
60714;SDS011;46564;53.096;8.246;2023-07-20T11:59:53;5.78;;;1.48;;
60714;SDS011;46564;53.096;8.246;2023-07-20T12:04:59;4.00;;;0.85;;
60714;SDS011;46564;53.096;8.246;2023-07-20T12:10:06;1.15;;;0.60;;
60714;SDS011;46564;53.096;8.246;2023-07-20T12:25:37;1.02;;;0.63;;
60714;SDS011;46564;53.096;8.246;2023-07-20T12:30:48;2.42;;;0.77;;
60714;SDS011;46564;53.096;8.246;2023-07-20T12:35:49;0.50;;;0.40;;
60714;SDS011;46564;53.096;8.246;2023-07-20T12:40:51;3.75;;;0.88;;
60714;SDS011;46564;53.096;8.246;2023-07-20T12:45:52;3.75;;;0.68;;
60714;SDS011;46564;53.096;8.246;2023-07-20T12:50:54;4.60;;;1.25;;
60714;SDS011;46564;53.096;8.246;2023-07-20T12:55:56;3.58;;;0.80;;
60714;SDS011;46564;53.096;8.246;2023-07-20T13:00:57;1.70;;;0.60;;
60714;SDS011;46564;53.096;8.246;2023-07-20T13:06:01;3.65;;;0.80;;
60714;SDS011;46564;53.096;8.246;2023-07-20T13:11:06;2.72;;;0.80;;
60714;SDS011;46564;53.096;8.246;2023-07-20T13:16:07;2.65;;;1.23;;
60714;SDS011;46564;53.096;8.246;2023-07-20T13:21:09;2.88;;;0.65;;
60714;SDS011;46564;53.096;8.246;2023-07-20T13:26:10;3.90;;;0.68;;
60714;SDS011;46564;53.096;8.246;2023-07-20T13:31:13;2.83;;;0.80;;
60714;SDS011;46564;53.096;8.246;2023-07-20T13:36:16;1.88;;;0.70;;
60714;SDS011;46564;53.096;8.246;2023-07-20T13:41:18;1.95;;;0.60;;
60714;SDS011;46564;53.096;8.246;2023-07-20T13:46:20;1.65;;;0.65;;
60714;SDS011;46564;53.096;8.246;2023-07-20T13:51:42;3.40;;;0.80;;
60714;SDS011;46564;53.096;8.246;2023-07-20T13:56:43;3.63;;;1.00;;
60714;SDS011;46564;53.096;8.246;2023-07-20T14:01:45;3.40;;;0.80;;
60714;SDS011;46564;53.096;8.246;2023-07-20T14:06:46;3.70;;;0.90;;
60714;SDS011;46564;53.096;8.246;2023-07-20T14:11:48;2.78;;;0.80;;
60714;SDS011;46564;53.096;8.246;2023-07-20T14:16:52;3.50;;;1.00;;
60714;SDS011;46564;53.096;8.246;2023-07-20T14:21:53;4.30;;;0.80;;
60714;SDS011;46564;53.096;8.246;2023-07-20T14:26:55;3.20;;;0.80;;
60714;SDS011;46564;53.096;8.246;2023-07-20T14:31:57;2.53;;;0.70;;
60714;SDS011;46564;53.096;8.246;2023-07-20T14:36:59;5.15;;;1.00;;
60714;SDS011;46564;53.096;8.246;2023-07-20T14:42:01;1.17;;;0.70;;
60714;SDS011;46564;53.096;8.246;2023-07-20T14:47:02;1.52;;;0.77;;
60714;SDS011;46564;53.096;8.246;2023-07-20T14:52:15;4.55;;;1.00;;
60714;SDS011;46564;53.096;8.246;2023-07-20T14:57:17;2.85;;;0.70;;
60714;SDS011;46564;53.096;8.246;2023-07-20T15:02:18;1.80;;;0.68;;
60714;SDS011;46564;53.096;8.246;2023-07-20T15:07:20;3.17;;;0.60;;
60714;SDS011;46564;53.096;8.246;2023-07-20T15:12:22;2.42;;;0.80;;
60714;SDS011;46564;53.096;8.246;2023-07-20T15:17:23;1.50;;;0.80;;
60714;SDS011;46564;53.096;8.246;2023-07-20T15:22:25;1.40;;;0.63;;
60714;SDS011;46564;53.096;8.246;2023-07-20T15:27:27;5.50;;;0.90;;
60714;SDS011;46564;53.096;8.246;2023-07-20T15:32:28;2.63;;;0.82;;
60714;SDS011;46564;53.096;8.246;2023-07-20T15:37:50;2.42;;;0.60;;
60714;SDS011;46564;53.096;8.246;2023-07-20T15:42:51;3.95;;;0.80;;
60714;SDS011;46564;53.096;8.246;2023-07-20T15:47:54;3.80;;;0.90;;
60714;SDS011;46564;53.096;8.246;2023-07-20T15:52:56;3.03;;;1.08;;
60714;SDS011;46564;53.096;8.246;2023-07-20T15:57:58;2.58;;;1.13;;
60714;SDS011;46564;53.096;8.246;2023-07-20T16:03:00;2.08;;;0.80;;
60714;SDS011;46564;53.096;8.246;2023-07-20T16:08:01;3.17;;;1.02;;
60714;SDS011;46564;53.096;8.246;2023-07-20T16:13:04;3.65;;;1.50;;
60714;SDS011;46564;53.096;8.246;2023-07-20T16:18:05;4.55;;;0.95;;
60714;SDS011;46564;53.096;8.246;2023-07-20T16:23:07;3.22;;;1.20;;
60714;SDS011;46564;53.096;8.246;2023-07-20T16:28:08;2.47;;;1.08;;
60714;SDS011;46564;53.096;8.246;2023-07-20T16:33:10;1.83;;;0.80;;
60714;SDS011;46564;53.096;8.246;2023-07-20T16:38:11;6.05;;;1.23;;
60714;SDS011;46564;53.096;8.246;2023-07-20T16:43:14;3.97;;;1.10;;
60714;SDS011;46564;53.096;8.246;2023-07-20T16:48:16;3.90;;;0.98;;
60714;SDS011;46564;53.096;8.246;2023-07-20T16:53:19;4.10;;;1.20;;
60714;SDS011;46564;53.096;8.246;2023-07-20T16:58:22;3.17;;;1.20;;
60714;SDS011;46564;53.096;8.246;2023-07-20T17:03:26;1.92;;;0.90;;
60714;SDS011;46564;53.096;8.246;2023-07-20T17:08:27;4.35;;;1.10;;
60714;SDS011;46564;53.096;8.246;2023-07-20T17:13:29;3.03;;;1.30;;
60714;SDS011;46564;53.096;8.246;2023-07-20T17:18:30;1.80;;;1.08;;
60714;SDS011;46564;53.096;8.246;2023-07-20T17:23:32;5.30;;;1.40;;
60714;SDS011;46564;53.096;8.246;2023-07-20T17:28:36;2.22;;;1.05;;
60714;SDS011;46564;53.096;8.246;2023-07-20T17:33:41;3.67;;;1.45;;
60714;SDS011;46564;53.096;8.246;2023-07-20T17:38:42;3.40;;;1.15;;
60714;SDS011;46564;53.096;8.246;2023-07-20T17:43:43;2.28;;;1.17;;
60714;SDS011;46564;53.096;8.246;2023-07-20T17:48:45;4.00;;;1.42;;
60714;SDS011;46564;53.096;8.246;2023-07-20T17:53:46;3.72;;;1.33;;
60714;SDS011;46564;53.096;8.246;2023-07-20T17:58:48;2.50;;;1.08;;
60714;SDS011;46564;53.096;8.246;2023-07-20T18:03:49;3.83;;;1.10;;
60714;SDS011;46564;53.096;8.246;2023-07-20T18:08:51;1.58;;;0.90;;
60714;SDS011;46564;53.096;8.246;2023-07-20T18:13:52;2.85;;;1.23;;
60714;SDS011;46564;53.096;8.246;2023-07-20T18:18:54;4.03;;;1.15;;
60714;SDS011;46564;53.096;8.246;2023-07-20T18:23:56;3.75;;;1.10;;
60714;SDS011;46564;53.096;8.246;2023-07-20T18:28:58;1.92;;;0.77;;
60714;SDS011;46564;53.096;8.246;2023-07-20T18:34:00;4.38;;;1.02;;
60714;SDS011;46564;53.096;8.246;2023-07-20T18:39:02;3.58;;;1.20;;
60714;SDS011;46564;53.096;8.246;2023-07-20T18:44:05;10.90;;;1.17;;
60714;SDS011;46564;53.096;8.246;2023-07-20T18:49:07;3.53;;;1.00;;
60714;SDS011;46564;53.096;8.246;2023-07-20T18:54:11;2.72;;;1.05;;
60714;SDS011;46564;53.096;8.246;2023-07-20T18:59:13;3.60;;;1.40;;
60714;SDS011;46564;53.096;8.246;2023-07-20T19:04:14;2.72;;;1.42;;
60714;SDS011;46564;53.096;8.246;2023-07-20T19:09:16;3.75;;;1.30;;
60714;SDS011;46564;53.096;8.246;2023-07-20T19:14:17;3.45;;;1.45;;
60714;SDS011;46564;53.096;8.246;2023-07-20T19:19:19;3.75;;;1.40;;
60714;SDS011;46564;53.096;8.246;2023-07-20T19:24:20;4.65;;;1.20;;
60714;SDS011;46564;53.096;8.246;2023-07-20T19:29:22;3.97;;;1.65;;
60714;SDS011;46564;53.096;8.246;2023-07-20T19:34:23;6.40;;;1.90;;
60714;SDS011;46564;53.096;8.246;2023-07-20T19:39:24;5.45;;;1.40;;
60714;SDS011;46564;53.096;8.246;2023-07-20T19:44:26;3.72;;;1.70;;
60714;SDS011;46564;53.096;8.246;2023-07-20T19:49:28;5.15;;;1.75;;
60714;SDS011;46564;53.096;8.246;2023-07-20T19:54:30;7.65;;;1.73;;
60714;SDS011;46564;53.096;8.246;2023-07-20T19:59:31;4.65;;;1.40;;
60714;SDS011;46564;53.096;8.246;2023-07-20T20:04:33;6.57;;;1.75;;
60714;SDS011;46564;53.096;8.246;2023-07-20T20:09:38;3.63;;;1.30;;
60714;SDS011;46564;53.096;8.246;2023-07-20T20:14:39;3.88;;;1.70;;
60714;SDS011;46564;53.096;8.246;2023-07-20T20:19:41;2.65;;;1.30;;
60714;SDS011;46564;53.096;8.246;2023-07-20T20:24:42;4.57;;;1.60;;
60714;SDS011;46564;53.096;8.246;2023-07-20T20:29:44;3.53;;;1.80;;
60714;SDS011;46564;53.096;8.246;2023-07-20T20:34:45;7.72;;;2.22;;
60714;SDS011;46564;53.096;8.246;2023-07-20T20:39:47;6.32;;;1.70;;
60714;SDS011;46564;53.096;8.246;2023-07-20T20:44:49;6.63;;;1.88;;
60714;SDS011;46564;53.096;8.246;2023-07-20T20:49:50;3.60;;;1.70;;
60714;SDS011;46564;53.096;8.246;2023-07-20T20:54:51;6.95;;;2.67;;
60714;SDS011;46564;53.096;8.246;2023-07-20T20:59:53;6.63;;;2.20;;
60714;SDS011;46564;53.096;8.246;2023-07-20T21:04:54;5.43;;;2.53;;
60714;SDS011;46564;53.096;8.246;2023-07-20T21:09:56;4.38;;;2.05;;
60714;SDS011;46564;53.096;8.246;2023-07-20T21:14:57;4.47;;;2.05;;
60714;SDS011;46564;53.096;8.246;2023-07-20T21:19:59;8.52;;;2.40;;
60714;SDS011;46564;53.096;8.246;2023-07-20T21:25:01;6.00;;;2.20;;
60714;SDS011;46564;53.096;8.246;2023-07-20T21:30:02;5.30;;;2.22;;
60714;SDS011;46564;53.096;8.246;2023-07-20T21:35:04;8.40;;;1.95;;
60714;SDS011;46564;53.096;8.246;2023-07-20T21:40:06;17.23;;;2.58;;
60714;SDS011;46564;53.096;8.246;2023-07-20T21:45:08;7.05;;;2.85;;
60714;SDS011;46564;53.096;8.246;2023-07-20T21:50:10;5.70;;;2.50;;
60714;SDS011;46564;53.096;8.246;2023-07-20T21:55:12;3.97;;;2.22;;
60714;SDS011;46564;53.096;8.246;2023-07-20T22:00:13;6.05;;;2.95;;
60714;SDS011;46564;53.096;8.246;2023-07-20T22:05:15;7.85;;;2.60;;
60714;SDS011;46564;53.096;8.246;2023-07-20T22:10:17;7.25;;;2.67;;
60714;SDS011;46564;53.096;8.246;2023-07-20T22:15:18;8.45;;;3.20;;
60714;SDS011;46564;53.096;8.246;2023-07-20T22:20:20;5.35;;;2.45;;
60714;SDS011;46564;53.096;8.246;2023-07-20T22:25:21;6.03;;;2.80;;
60714;SDS011;46564;53.096;8.246;2023-07-20T22:30:23;6.45;;;2.97;;
60714;SDS011;46564;53.096;8.246;2023-07-20T22:35:24;5.00;;;2.50;;
60714;SDS011;46564;53.096;8.246;2023-07-20T22:40:26;5.25;;;2.60;;
60714;SDS011;46564;53.096;8.246;2023-07-20T22:45:27;6.15;;;3.63;;
60714;SDS011;46564;53.096;8.246;2023-07-20T22:50:28;4.43;;;2.10;;
60714;SDS011;46564;53.096;8.246;2023-07-20T22:55:30;8.27;;;3.00;;
60714;SDS011;46564;53.096;8.246;2023-07-20T23:00:31;7.28;;;2.88;;
60714;SDS011;46564;53.096;8.246;2023-07-20T23:05:33;6.13;;;2.60;;
60714;SDS011;46564;53.096;8.246;2023-07-20T23:10:34;4.93;;;2.50;;
60714;SDS011;46564;53.096;8.246;2023-07-20T23:15:36;6.15;;;2.65;;
60714;SDS011;46564;53.096;8.246;2023-07-20T23:20:37;7.40;;;2.50;;
60714;SDS011;46564;53.096;8.246;2023-07-20T23:25:39;6.30;;;2.72;;
60714;SDS011;46564;53.096;8.246;2023-07-20T23:30:44;6.15;;;3.10;;
60714;SDS011;46564;53.096;8.246;2023-07-20T23:35:46;4.53;;;2.50;;
60714;SDS011;46564;53.096;8.246;2023-07-20T23:40:48;7.57;;;2.42;;
60714;SDS011;46564;53.096;8.246;2023-07-20T23:45:49;6.55;;;2.80;;
60714;SDS011;46564;53.096;8.246;2023-07-20T23:50:51;6.05;;;2.53;;
60714;SDS011;46564;53.096;8.246;2023-07-20T23:55:52;6.00;;;2.70;;
